Advance, Missouri
Current Conditions -  °F | °C
As of 9:39 AM on Monday 22 Dec 2014 (Local Time) from KCGI Reporting Station
Haze Haze  
Wind Chill: 39°   Ceiling: 300
Heat Index: 46°   Visibility: 2mi
Dew Point: 46°   Wind: 16mph
Humidity: 100%   Direction: 150°SSE
Pressure: 29.8"   Gusts: NA
Location:  37.1°N, 89.91°W
Report Text: KCGI 221539Z 15014KT 2SM BR OVC003 08/08 A2980 RMK AO2 RAE18 P0001 T00780078
Loading
Personal Weather Stations






























Interactive Weather Map New forecast layout! Learn more

10-Day Weather Forecast

Advertisements
Track Severe Weather on mobile